Cambridge, Massachusetts
Current Conditions -  °F | °C
As of 12:54 AM on Friday 31 Oct 2014 (Local Time) from KBOS Reporting Station
Broken Clouds Broken Clouds  
Wind Chill: 44°   Ceiling: 6000
Heat Index: 47°   Visibility: 10mi
Dew Point: 37°   Wind: 6mph
Humidity: 68%   Direction: 350°N
Pressure: 30"   Gusts: NA
Location:  42.37°N, 71.1°W
Report Text: KBOS 310454Z 35005KT 10SM BKN060 08/03 A3000 RMK AO2 SLP158 T00830028 401500078
Loading
Personal Weather Stations






























Interactive Weather Map
Tropical Storm Tracking
New forecast layout! Learn more

10-Day Weather Forecast

Advertisements
Track Severe Weather on mobile